الصفحة الرئيسية
METAR-TAF:

METAR-TAF

مطار :

كوستناي, كازاخستان

دائرة عرض: 53-12-23N, خط طول: 063-33-03E, ارتفاع: 182 متر

مراقبة الطقس الحالي

تاريخ ووقت الإصدار 25 دقيقة قبل الساعة 18:30UTC
ريح 8 عقدة من الجنوب الغربي
درجة الحرارة -17°درجة مئوية
الرطوبة 92%
ضغط 1020 hPa
الرؤية 10 كم أو أكثر
الغيوم لا تقل 1500 م ولا وجود لمزنة ركامية السحاب الأسود

METAR: UAUU 221830Z 23004MPS CAVOK M17/M18 Q1020 R15/820060 NOSIG RMK QFE748/0998

زمن: 00:55 (18:55 UTC)

توقعات

تاريخ ووقت الإصدار 1ساعة و 55 دقيقة قبل الساعة 17:00UTC
التوقعات صالحة من22 الساعة 18 UTC إلى 23 الساعة 03 UTC
ريح 10 عقدة من الجنوب الغربي
الرؤية: 6000 متر
غيوم متفرقة على ارتفاع 1000 قدم
غيوم مفككة على ارتفاع 10000 قدم
مؤقت
من 22 الساعة 19 UTC إلى 23 الساعة 03 UTC
الرؤية: 2000 متر
غشاء

TAF: UAUU 221700Z 2218/2303 23005MPS 6000 SCT010 BKN100 TEMPO 2219/2303 2000 BR

أرصاد الطقس والتوقعات من أكثر من 4000 مطار (تقارير الطقس للمطار METAR والتنبؤ بالطقس بالمطارTAF).

المحطات المتاحة هي النقط الصفراء والحمراء على الخريطة.

حرك المؤشر فوق النقطة لمعرفة اسم المحطة.

ثم انقر لمعرفة أرصاد وتوقعات الطقس.

لتغيير الخارطة: اضغط على الأزرار الخضراء مع رمز الصليب الأسود للتكبير. على الزر الأخضر مع شرطة للتصغير، أو على الأسهم الخضراء للخرائط المجاورة.


METAR-TAF: